sensor_id;sensor_type;location;lat;lon;timestamp;pressure;altitude;pressure_sealevel;temperature;humidity
70248;BME280;57641;51.416;5.506;2023-04-15T00:00:41;100836.19;;;13.58;46.45
70248;BME280;57641;51.416;5.506;2023-04-15T00:03:07;100842.69;;;13.55;46.38
70248;BME280;57641;51.416;5.506;2023-04-15T00:05:33;100837.69;;;13.52;46.85
70248;BME280;57641;51.416;5.506;2023-04-15T00:07:59;100843.72;;;13.54;47.06
70248;BME280;57641;51.416;5.506;2023-04-15T00:10:26;100839.69;;;13.58;47.05
70248;BME280;57641;51.416;5.506;2023-04-15T00:12:52;100831.81;;;13.57;46.74
70248;BME280;57641;51.416;5.506;2023-04-15T00:15:18;100841.75;;;13.48;46.77
70248;BME280;57641;51.416;5.506;2023-04-15T00:17:45;100837.72;;;13.44;46.88
70248;BME280;57641;51.416;5.506;2023-04-15T00:20:10;100837.56;;;13.45;46.54
70248;BME280;57641;51.416;5.506;2023-04-15T00:22:36;100834.19;;;13.43;47.00
70248;BME280;57641;51.416;5.506;2023-04-15T00:25:02;100831.72;;;13.42;47.17
70248;BME280;57641;51.416;5.506;2023-04-15T00:27:27;100834.19;;;13.43;46.75
70248;BME280;57641;51.416;5.506;2023-04-15T00:29:54;100836.75;;;13.37;47.45
70248;BME280;57641;51.416;5.506;2023-04-15T00:32:20;100833.22;;;13.36;47.37
70248;BME280;57641;51.416;5.506;2023-04-15T00:34:46;100833.88;;;13.38;47.58
70248;BME280;57641;51.416;5.506;2023-04-15T00:37:12;100835.41;;;13.33;47.51
70248;BME280;57641;51.416;5.506;2023-04-15T00:39:37;100827.88;;;13.28;47.53
70248;BME280;57641;51.416;5.506;2023-04-15T00:42:04;100834.44;;;13.26;47.31
70248;BME280;57641;51.416;5.506;2023-04-15T00:44:30;100834.13;;;13.21;47.82
70248;BME280;57641;51.416;5.506;2023-04-15T00:46:55;100832.91;;;13.23;47.27
70248;BME280;57641;51.416;5.506;2023-04-15T00:49:22;100838.47;;;13.22;47.63
70248;BME280;57641;51.416;5.506;2023-04-15T00:51:48;100831.59;;;13.19;48.40
70248;BME280;57641;51.416;5.506;2023-04-15T00:54:13;100840.31;;;13.21;47.86
70248;BME280;57641;51.416;5.506;2023-04-15T00:56:39;100839.63;;;13.19;48.14
70248;BME280;57641;51.416;5.506;2023-04-15T00:59:05;100839.97;;;13.16;48.12
70248;BME280;57641;51.416;5.506;2023-04-15T01:01:33;100832.09;;;13.15;47.77
70248;BME280;57641;51.416;5.506;2023-04-15T01:03:59;100836.09;;;13.10;48.38
70248;BME280;57641;51.416;5.506;2023-04-15T01:06:29;100845.28;;;13.08;47.57
70248;BME280;57641;51.416;5.506;2023-04-15T01:08:57;100843.47;;;13.08;48.23
70248;BME280;57641;51.416;5.506;2023-04-15T01:11:23;100841.13;;;13.05;48.14
70248;BME280;57641;51.416;5.506;2023-04-15T01:13:54;100835.59;;;13.07;48.82
70248;BME280;57641;51.416;5.506;2023-04-15T01:16:21;100835.78;;;13.05;48.01
70248;BME280;57641;51.416;5.506;2023-04-15T01:18:47;100838.63;;;13.04;48.70
70248;BME280;57641;51.416;5.506;2023-04-15T01:21:13;100837.94;;;13.02;48.47
70248;BME280;57641;51.416;5.506;2023-04-15T01:23:39;100839.63;;;13.03;48.81
70248;BME280;57641;51.416;5.506;2023-04-15T01:26:07;100838.63;;;13.04;48.31
70248;BME280;57641;51.416;5.506;2023-04-15T01:28:34;100838.63;;;13.04;48.35
70248;BME280;57641;51.416;5.506;2023-04-15T01:31:09;100837.94;;;13.02;48.32
70248;BME280;57641;51.416;5.506;2023-04-15T01:33:36;100831.59;;;13.03;48.11
70248;BME280;57641;51.416;5.506;2023-04-15T01:36:03;100830.25;;;12.99;48.40
70248;BME280;57641;51.416;5.506;2023-04-15T01:38:30;100833.78;;;12.99;48.58
70248;BME280;57641;51.416;5.506;2023-04-15T01:40:56;100830.44;;;12.97;48.53
70248;BME280;57641;51.416;5.506;2023-04-15T01:43:24;100833.25;;;12.96;48.96
70248;BME280;57641;51.416;5.506;2023-04-15T01:45:50;100829.59;;;12.97;48.57
70248;BME280;57641;51.416;5.506;2023-04-15T01:48:16;100829.25;;;12.92;48.61
70248;BME280;57641;51.416;5.506;2023-04-15T01:50:42;100846.16;;;12.92;48.77
70248;BME280;57641;51.416;5.506;2023-04-15T01:53:08;100839.63;;;12.87;49.15
70248;BME280;57641;51.416;5.506;2023-04-15T01:55:34;100842.97;;;12.81;48.69
70248;BME280;57641;51.416;5.506;2023-04-15T01:57:59;100838.47;;;12.81;48.46
70248;BME280;57641;51.416;5.506;2023-04-15T02:00:28;100838.47;;;12.73;48.71
70248;BME280;57641;51.416;5.506;2023-04-15T02:02:54;100835.63;;;12.75;49.33
70248;BME280;57641;51.416;5.506;2023-04-15T02:05:20;100842.16;;;12.72;49.45
70248;BME280;57641;51.416;5.506;2023-04-15T02:07:46;100832.59;;;12.69;49.08
70248;BME280;57641;51.416;5.506;2023-04-15T02:10:13;100832.94;;;12.66;49.37
70248;BME280;57641;51.416;5.506;2023-04-15T02:12:38;100830.28;;;12.66;49.36
70248;BME280;57641;51.416;5.506;2023-04-15T02:15:05;100839.16;;;12.67;49.70
70248;BME280;57641;51.416;5.506;2023-04-15T02:17:35;100842.13;;;12.64;49.53
70248;BME280;57641;51.416;5.506;2023-04-15T02:20:01;100845.66;;;12.56;49.29
70248;BME280;57641;51.416;5.506;2023-04-15T02:22:26;100852.69;;;12.57;49.13
70248;BME280;57641;51.416;5.506;2023-04-15T02:24:52;100851.16;;;12.55;49.88
70248;BME280;57641;51.416;5.506;2023-04-15T02:27:21;100850.66;;;12.51;49.45
70248;BME280;57641;51.416;5.506;2023-04-15T02:29:46;100858.16;;;12.48;49.86
70248;BME280;57641;51.416;5.506;2023-04-15T02:32:15;100849.66;;;12.44;49.98
70248;BME280;57641;51.416;5.506;2023-04-15T02:34:41;100861.88;;;12.47;50.17
70248;BME280;57641;51.416;5.506;2023-04-15T02:37:11;100865.84;;;12.43;50.65
70248;BME280;57641;51.416;5.506;2023-04-15T02:39:37;100868.19;;;12.38;50.32
70248;BME280;57641;51.416;5.506;2023-04-15T02:42:03;100868.03;;;12.39;50.73
70248;BME280;57641;51.416;5.506;2023-04-15T02:44:31;100873.88;;;12.43;50.32
70248;BME280;57641;51.416;5.506;2023-04-15T02:46:57;100875.38;;;12.37;50.28
70248;BME280;57641;51.416;5.506;2023-04-15T02:49:25;100876.53;;;12.35;50.41
70248;BME280;57641;51.416;5.506;2023-04-15T02:51:50;100879.38;;;12.33;49.91
70248;BME280;57641;51.416;5.506;2023-04-15T02:54:17;100872.84;;;12.27;50.25
70248;BME280;57641;51.416;5.506;2023-04-15T02:56:42;100873.03;;;12.26;50.29
70248;BME280;57641;51.416;5.506;2023-04-15T02:59:08;100876.00;;;12.23;49.82
70248;BME280;57641;51.416;5.506;2023-04-15T03:01:33;100874.66;;;12.19;50.11
70248;BME280;57641;51.416;5.506;2023-04-15T03:03:59;100878.47;;;12.16;49.72
70248;BME280;57641;51.416;5.506;2023-04-15T03:06:25;100873.63;;;12.12;49.54
70248;BME280;57641;51.416;5.506;2023-04-15T03:08:51;100875.47;;;12.11;51.01
70248;BME280;57641;51.416;5.506;2023-04-15T03:11:18;100877.97;;;12.05;50.39
70248;BME280;57641;51.416;5.506;2023-04-15T03:13:44;100881.94;;;12.01;50.04
70248;BME280;57641;51.416;5.506;2023-04-15T03:16:10;100878.91;;;11.96;50.90
70248;BME280;57641;51.416;5.506;2023-04-15T03:18:36;100876.25;;;11.96;50.49
70248;BME280;57641;51.416;5.506;2023-04-15T03:21:02;100874.91;;;11.92;50.34
70248;BME280;57641;51.416;5.506;2023-04-15T03:23:29;100886.91;;;11.88;50.58
70248;BME280;57641;51.416;5.506;2023-04-15T03:25:55;100883.75;;;11.84;50.62
70248;BME280;57641;51.416;5.506;2023-04-15T03:28:22;100889.09;;;11.84;50.45
70248;BME280;57641;51.416;5.506;2023-04-15T03:30:48;100892.56;;;11.84;50.69
70248;BME280;57641;51.416;5.506;2023-04-15T03:33:14;100899.22;;;11.80;51.43
70248;BME280;57641;51.416;5.506;2023-04-15T03:35:39;100896.56;;;11.80;50.73
70248;BME280;57641;51.416;5.506;2023-04-15T03:38:05;100889.53;;;11.79;50.65
70248;BME280;57641;51.416;5.506;2023-04-15T03:40:31;100897.72;;;11.78;50.93
70248;BME280;57641;51.416;5.506;2023-04-15T03:42:56;100897.19;;;11.74;51.09
70248;BME280;57641;51.416;5.506;2023-04-15T03:45:22;100893.53;;;11.75;50.71
70248;BME280;57641;51.416;5.506;2023-04-15T03:47:47;100905.00;;;11.68;50.89
70248;BME280;57641;51.416;5.506;2023-04-15T03:50:14;100909.66;;;11.66;51.47
70248;BME280;57641;51.416;5.506;2023-04-15T03:52:39;100902.47;;;11.66;50.93
70248;BME280;57641;51.416;5.506;2023-04-15T03:55:05;100909.97;;;11.63;50.80
70248;BME280;57641;51.416;5.506;2023-04-15T03:57:33;100920.13;;;11.59;51.21
70248;BME280;57641;51.416;5.506;2023-04-15T04:00:04;100915.94;;;11.57;51.10
70248;BME280;57641;51.416;5.506;2023-04-15T04:02:30;100921.09;;;11.58;50.91
70248;BME280;57641;51.416;5.506;2023-04-15T04:04:55;100922.31;;;11.64;51.40
70248;BME280;57641;51.416;5.506;2023-04-15T04:07:22;100926.03;;;11.71;51.21
70248;BME280;57641;51.416;5.506;2023-04-15T04:09:48;100930.81;;;11.85;50.50
70248;BME280;57641;51.416;5.506;2023-04-15T04:12:14;100929.53;;;11.97;50.42
70248;BME280;57641;51.416;5.506;2023-04-15T04:14:39;100931.72;;;12.02;49.93
70248;BME280;57641;51.416;5.506;2023-04-15T04:17:05;100938.06;;;12.01;50.34
70248;BME280;57641;51.416;5.506;2023-04-15T04:19:31;100940.78;;;12.09;50.57
70248;BME280;57641;51.416;5.506;2023-04-15T04:21:56;100944.94;;;12.11;50.25
70248;BME280;57641;51.416;5.506;2023-04-15T04:24:22;100939.59;;;12.11;50.38
70248;BME280;57641;51.416;5.506;2023-04-15T04:26:47;100949.78;;;12.00;49.84
70248;BME280;57641;51.416;5.506;2023-04-15T04:29:13;100949.78;;;12.08;50.54
70248;BME280;57641;51.416;5.506;2023-04-15T04:31:38;100962.81;;;12.11;50.37
70248;BME280;57641;51.416;5.506;2023-04-15T04:34:04;100964.75;;;11.93;50.14
70248;BME280;57641;51.416;5.506;2023-04-15T04:36:29;100967.28;;;11.94;50.53
70248;BME280;57641;51.416;5.506;2023-04-15T04:38:55;100975.38;;;11.84;50.93
70248;BME280;57641;51.416;5.506;2023-04-15T04:41:20;100971.41;;;11.89;50.62
70248;BME280;57641;51.416;5.506;2023-04-15T04:43:46;100975.28;;;11.94;51.19
70248;BME280;57641;51.416;5.506;2023-04-15T04:46:11;100979.31;;;11.98;51.27
70248;BME280;57641;51.416;5.506;2023-04-15T04:48:37;100986.22;;;12.09;50.92
70248;BME280;57641;51.416;5.506;2023-04-15T04:51:03;100994.25;;;12.17;50.06
70248;BME280;57641;51.416;5.506;2023-04-15T04:53:29;100990.94;;;12.23;50.39
70248;BME280;57641;51.416;5.506;2023-04-15T04:55:58;100987.25;;;12.16;49.98
70248;BME280;57641;51.416;5.506;2023-04-15T04:58:23;100994.38;;;12.07;50.54
70248;BME280;57641;51.416;5.506;2023-04-15T05:00:49;101004.22;;;12.07;50.39
70248;BME280;57641;51.416;5.506;2023-04-15T05:03:15;100999.34;;;11.94;51.06
70248;BME280;57641;51.416;5.506;2023-04-15T05:05:40;101001.75;;;12.05;50.58
70248;BME280;57641;51.416;5.506;2023-04-15T05:08:06;101011.88;;;12.02;51.40
70248;BME280;57641;51.416;5.506;2023-04-15T05:10:32;101016.25;;;12.03;51.50
70248;BME280;57641;51.416;5.506;2023-04-15T05:12:57;101011.22;;;12.00;51.52
70248;BME280;57641;51.416;5.506;2023-04-15T05:15:23;101021.06;;;11.99;51.12
70248;BME280;57641;51.416;5.506;2023-04-15T05:17:49;101030.28;;;12.05;51.09
70248;BME280;57641;51.416;5.506;2023-04-15T05:20:14;101035.16;;;12.09;51.49
70248;BME280;57641;51.416;5.506;2023-04-15T05:22:40;101040.50;;;12.09;51.40
70248;BME280;57641;51.416;5.506;2023-04-15T05:25:06;101038.69;;;12.10;51.37
70248;BME280;57641;51.416;5.506;2023-04-15T05:27:31;101042.19;;;12.10;51.29
70248;BME280;57641;51.416;5.506;2023-04-15T05:29:57;101054.22;;;12.14;51.04
70248;BME280;57641;51.416;5.506;2023-04-15T05:32:22;101051.00;;;12.11;51.56
70248;BME280;57641;51.416;5.506;2023-04-15T05:34:48;101058.22;;;12.10;51.59
70248;BME280;57641;51.416;5.506;2023-04-15T05:37:14;101057.53;;;12.08;51.72
70248;BME280;57641;51.416;5.506;2023-04-15T05:39:40;101061.88;;;12.09;51.82
70248;BME280;57641;51.416;5.506;2023-04-15T05:42:07;101066.53;;;12.07;51.70
70248;BME280;57641;51.416;5.506;2023-04-15T05:44:32;101074.50;;;11.99;51.31
70248;BME280;57641;51.416;5.506;2023-04-15T05:46:58;101068.84;;;12.02;52.03
70248;BME280;57641;51.416;5.506;2023-04-15T05:49:24;101081.06;;;12.05;51.80
70248;BME280;57641;51.416;5.506;2023-04-15T05:51:49;101084.94;;;12.10;51.75
70248;BME280;57641;51.416;5.506;2023-04-15T05:54:15;101096.94;;;12.06;51.79
70248;BME280;57641;51.416;5.506;2023-04-15T05:56:41;101087.69;;;12.01;51.93
70248;BME280;57641;51.416;5.506;2023-04-15T05:59:07;101093.84;;;11.93;52.09
70248;BME280;57641;51.416;5.506;2023-04-15T06:01:33;101094.97;;;11.91;52.12
70248;BME280;57641;51.416;5.506;2023-04-15T06:03:59;101090.56;;;11.99;52.53
70248;BME280;57641;51.416;5.506;2023-04-15T06:06:26;101093.31;;;11.90;52.32
70248;BME280;57641;51.416;5.506;2023-04-15T06:08:51;101108.34;;;11.91;52.37
70248;BME280;57641;51.416;5.506;2023-04-15T06:11:19;101102.22;;;11.98;52.95
70248;BME280;57641;51.416;5.506;2023-04-15T06:13:46;101104.94;;;12.06;52.74
70248;BME280;57641;51.416;5.506;2023-04-15T06:16:12;101107.84;;;12.13;52.63
70248;BME280;57641;51.416;5.506;2023-04-15T06:18:37;101114.38;;;12.18;53.16
70248;BME280;57641;51.416;5.506;2023-04-15T06:21:03;101124.81;;;12.30;52.26
70248;BME280;57641;51.416;5.506;2023-04-15T06:23:30;101119.69;;;12.36;52.18
70248;BME280;57641;51.416;5.506;2023-04-15T06:25:55;101128.59;;;12.45;52.37
70248;BME280;57641;51.416;5.506;2023-04-15T06:28:21;101132.81;;;12.55;52.12
70248;BME280;57641;51.416;5.506;2023-04-15T06:30:46;101135.56;;;12.63;52.08
70248;BME280;57641;51.416;5.506;2023-04-15T06:33:12;101145.94;;;12.66;51.85
70248;BME280;57641;51.416;5.506;2023-04-15T06:35:38;101147.16;;;12.80;52.08
70248;BME280;57641;51.416;5.506;2023-04-15T06:38:03;101150.38;;;12.84;51.85
70248;BME280;57641;51.416;5.506;2023-04-15T06:40:30;101159.06;;;12.86;51.71
70248;BME280;57641;51.416;5.506;2023-04-15T06:42:55;101157.22;;;12.86;51.97
70248;BME280;57641;51.416;5.506;2023-04-15T06:45:21;101160.88;;;12.85;51.89
70248;BME280;57641;51.416;5.506;2023-04-15T06:47:47;101169.28;;;12.90;51.91
70248;BME280;57641;51.416;5.506;2023-04-15T06:50:15;101173.16;;;12.96;51.91
70248;BME280;57641;51.416;5.506;2023-04-15T06:52:41;101176.19;;;13.01;52.22
70248;BME280;57641;51.416;5.506;2023-04-15T06:55:07;101178.91;;;13.09;51.88
70248;BME280;57641;51.416;5.506;2023-04-15T06:57:32;101177.94;;;13.18;51.48
70248;BME280;57641;51.416;5.506;2023-04-15T06:59:58;101184.34;;;13.25;51.59
70248;BME280;57641;51.416;5.506;2023-04-15T07:02:23;101201.28;;;13.34;51.44
70248;BME280;57641;51.416;5.506;2023-04-15T07:04:49;101195.78;;;13.43;50.93
70248;BME280;57641;51.416;5.506;2023-04-15T07:07:15;101190.09;;;13.46;51.47
70248;BME280;57641;51.416;5.506;2023-04-15T07:09:42;101197.44;;;13.44;50.96
70248;BME280;57641;51.416;5.506;2023-04-15T07:12:08;101216.19;;;13.36;51.48
70248;BME280;57641;51.416;5.506;2023-04-15T07:14:33;101212.88;;;13.50;50.99
70248;BME280;57641;51.416;5.506;2023-04-15T07:16:59;101221.06;;;13.49;51.18
70248;BME280;57641;51.416;5.506;2023-04-15T07:19:25;101217.88;;;13.53;50.91
70248;BME280;57641;51.416;5.506;2023-04-15T07:21:50;101222.63;;;13.68;51.21
70248;BME280;57641;51.416;5.506;2023-04-15T07:24:16;101215.75;;;13.65;50.64
70248;BME280;57641;51.416;5.506;2023-04-15T07:26:43;101229.34;;;13.72;50.98
70248;BME280;57641;51.416;5.506;2023-04-15T07:29:09;101220.50;;;13.79;50.96
70248;BME280;57641;51.416;5.506;2023-04-15T07:31:35;101230.06;;;14.06;50.16
70248;BME280;57641;51.416;5.506;2023-04-15T07:34:02;101234.91;;;14.19;49.85
70248;BME280;57641;51.416;5.506;2023-04-15T07:36:27;101238.28;;;14.21;49.53
70248;BME280;57641;51.416;5.506;2023-04-15T07:38:54;101239.28;;;14.28;50.17
70248;BME280;57641;51.416;5.506;2023-04-15T07:41:20;101241.13;;;14.44;49.66
70248;BME280;57641;51.416;5.506;2023-04-15T07:43:46;101240.97;;;14.45;49.53
70248;BME280;57641;51.416;5.506;2023-04-15T07:46:13;101246.69;;;14.58;49.12
70248;BME280;57641;51.416;5.506;2023-04-15T07:48:39;101250.53;;;14.64;49.10
70248;BME280;57641;51.416;5.506;2023-04-15T07:51:05;101251.84;;;14.76;48.97
70248;BME280;57641;51.416;5.506;2023-04-15T07:53:31;101256.03;;;14.78;47.96
70248;BME280;57641;51.416;5.506;2023-04-15T07:55:57;101251.50;;;14.79;47.44
70248;BME280;57641;51.416;5.506;2023-04-15T07:58:23;101257.28;;;15.15;46.74
70248;BME280;57641;51.416;5.506;2023-04-15T08:00:49;101260.50;;;15.10;46.78
70248;BME280;57641;51.416;5.506;2023-04-15T08:03:14;101261.84;;;15.06;47.04
70248;BME280;57641;51.416;5.506;2023-04-15T08:05:41;101270.03;;;15.13;47.38
70248;BME280;57641;51.416;5.506;2023-04-15T08:08:07;101278.25;;;15.28;46.03
70248;BME280;57641;51.416;5.506;2023-04-15T08:10:33;101281.06;;;15.34;45.21
70248;BME280;57641;51.416;5.506;2023-04-15T08:13:01;101281.03;;;15.42;45.76
70248;BME280;57641;51.416;5.506;2023-04-15T08:15:27;101289.06;;;15.58;45.30
70248;BME280;57641;51.416;5.506;2023-04-15T08:17:56;101288.41;;;15.48;45.04
70248;BME280;57641;51.416;5.506;2023-04-15T08:20:21;101291.94;;;15.41;44.46
70248;BME280;57641;51.416;5.506;2023-04-15T08:22:47;101297.53;;;15.31;44.72
70248;BME280;57641;51.416;5.506;2023-04-15T08:25:19;101300.38;;;15.30;45.26
70248;BME280;57641;51.416;5.506;2023-04-15T08:27:53;101305.44;;;15.33;45.51
70248;BME280;57641;51.416;5.506;2023-04-15T08:30:19;101300.97;;;15.64;45.05
70248;BME280;57641;51.416;5.506;2023-04-15T08:32:49;101306.97;;;15.74;44.68
70248;BME280;57641;51.416;5.506;2023-04-15T08:35:15;101314.72;;;15.69;45.05
70248;BME280;57641;51.416;5.506;2023-04-15T08:37:41;101310.56;;;15.89;45.18
70248;BME280;57641;51.416;5.506;2023-04-15T08:40:10;101310.03;;;15.94;44.14
70248;BME280;57641;51.416;5.506;2023-04-15T08:42:49;101323.03;;;15.82;44.04
70248;BME280;57641;51.416;5.506;2023-04-15T08:45:24;101325.72;;;15.82;44.19
70248;BME280;57641;51.416;5.506;2023-04-15T08:47:55;101328.16;;;16.00;43.51
70248;BME280;57641;51.416;5.506;2023-04-15T08:50:28;101325.47;;;16.00;43.43
70248;BME280;57641;51.416;5.506;2023-04-15T08:52:54;101331.72;;;15.92;44.12
70248;BME280;57641;51.416;5.506;2023-04-15T08:55:27;101348.47;;;16.33;42.90
70248;BME280;57641;51.416;5.506;2023-04-15T08:57:54;101353.34;;;16.30;41.93
70248;BME280;57641;51.416;5.506;2023-04-15T09:00:21;101351.22;;;16.25;42.21
70248;BME280;57641;51.416;5.506;2023-04-15T09:02:47;101353.78;;;16.41;42.57
70248;BME280;57641;51.416;5.506;2023-04-15T09:05:17;101361.91;;;16.56;41.66
70248;BME280;57641;51.416;5.506;2023-04-15T09:07:42;101363.75;;;16.64;40.67
70248;BME280;57641;51.416;5.506;2023-04-15T09:10:09;101369.16;;;16.56;40.62
70248;BME280;57641;51.416;5.506;2023-04-15T09:12:35;101379.31;;;16.45;40.98
70248;BME280;57641;51.416;5.506;2023-04-15T09:15:03;101367.72;;;16.45;40.71
70248;BME280;57641;51.416;5.506;2023-04-15T09:17:32;101376.28;;;16.48;40.61
70248;BME280;57641;51.416;5.506;2023-04-15T09:22:34;101393.59;;;16.54;39.82
70248;BME280;57641;51.416;5.506;2023-04-15T09:25:03;101400.50;;;16.48;41.02
70248;BME280;57641;51.416;5.506;2023-04-15T09:27:28;101401.22;;;16.42;40.37
70248;BME280;57641;51.416;5.506;2023-04-15T09:29:54;101404.69;;;16.51;40.08
70248;BME280;57641;51.416;5.506;2023-04-15T09:32:20;101399.31;;;16.59;40.19
70248;BME280;57641;51.416;5.506;2023-04-15T09:34:50;101412.66;;;16.75;40.76
70248;BME280;57641;51.416;5.506;2023-04-15T09:37:33;101411.25;;;16.79;40.98
70248;BME280;57641;51.416;5.506;2023-04-15T09:40:05;101415.84;;;16.94;40.82
70248;BME280;57641;51.416;5.506;2023-04-15T09:42:33;101408.19;;;17.05;40.32
70248;BME280;57641;51.416;5.506;2023-04-15T09:45:12;101426.50;;;16.87;40.91
70248;BME280;57641;51.416;5.506;2023-04-15T09:47:38;101425.78;;;16.93;40.37
70248;BME280;57641;51.416;5.506;2023-04-15T09:50:04;101421.22;;;17.16;40.12
70248;BME280;57641;51.416;5.506;2023-04-15T09:52:39;101423.63;;;17.11;39.98
70248;BME280;57641;51.416;5.506;2023-04-15T09:55:06;101431.88;;;17.10;39.75
70248;BME280;57641;51.416;5.506;2023-04-15T09:57:34;101422.53;;;17.20;40.19
70248;BME280;57641;51.416;5.506;2023-04-15T10:00:05;101433.03;;;17.30;39.30
70248;BME280;57641;51.416;5.506;2023-04-15T10:02:42;101428.63;;;17.14;38.16
70248;BME280;57641;51.416;5.506;2023-04-15T10:05:13;101430.06;;;17.25;39.25
70248;BME280;57641;51.416;5.506;2023-04-15T10:07:39;101431.69;;;17.34;39.32
70248;BME280;57641;51.416;5.506;2023-04-15T10:10:07;101433.72;;;17.47;38.96
70248;BME280;57641;51.416;5.506;2023-04-15T10:12:40;101444.34;;;17.48;37.73
70248;BME280;57641;51.416;5.506;2023-04-15T10:15:14;101446.41;;;17.61;38.38
70248;BME280;57641;51.416;5.506;2023-04-15T10:17:43;101446.22;;;17.62;37.41
70248;BME280;57641;51.416;5.506;2023-04-15T10:20:16;101442.53;;;17.63;37.90
70248;BME280;57641;51.416;5.506;2023-04-15T10:22:44;101439.09;;;17.69;37.87
70248;BME280;57641;51.416;5.506;2023-04-15T10:25:14;101451.84;;;17.76;37.95
70248;BME280;57641;51.416;5.506;2023-04-15T10:27:41;101450.91;;;17.68;37.75
70248;BME280;57641;51.416;5.506;2023-04-15T10:30:12;101443.19;;;17.80;38.67
70248;BME280;57641;51.416;5.506;2023-04-15T10:32:44;101446.91;;;17.79;38.25
70248;BME280;57641;51.416;5.506;2023-04-15T10:35:17;101453.69;;;17.90;38.63
70248;BME280;57641;51.416;5.506;2023-04-15T10:37:46;101462.06;;;17.95;37.75
70248;BME280;57641;51.416;5.506;2023-04-15T10:40:29;101449.78;;;18.07;38.25
70248;BME280;57641;51.416;5.506;2023-04-15T10:43:05;101456.38;;;18.04;38.13
70248;BME280;57641;51.416;5.506;2023-04-15T10:45:34;101468.94;;;18.12;38.17
70248;BME280;57641;51.416;5.506;2023-04-15T10:48:03;101469.97;;;18.11;36.42
70248;BME280;57641;51.416;5.506;2023-04-15T10:50:30;101462.81;;;17.74;36.11
70248;BME280;57641;51.416;5.506;2023-04-15T10:52:58;101463.94;;;17.57;36.14
70248;BME280;57641;51.416;5.506;2023-04-15T10:55:25;101466.91;;;17.47;35.77
70248;BME280;57641;51.416;5.506;2023-04-15T10:57:53;101481.78;;;17.43;36.12
70248;BME280;57641;51.416;5.506;2023-04-15T11:00:28;101471.19;;;17.56;36.50
70248;BME280;57641;51.416;5.506;2023-04-15T11:02:56;101465.41;;;17.82;36.52
70248;BME280;57641;51.416;5.506;2023-04-15T11:08:16;101473.84;;;18.08;36.14
70248;BME280;57641;51.416;5.506;2023-04-15T11:20:38;101480.44;;;18.50;34.05
70248;BME280;57641;51.416;5.506;2023-04-15T11:23:05;101487.16;;;18.39;35.28
70248;BME280;57641;51.416;5.506;2023-04-15T11:25:42;101493.84;;;18.58;34.69
70248;BME280;57641;51.416;5.506;2023-04-15T11:28:10;101485.59;;;18.15;35.00
70248;BME280;57641;51.416;5.506;2023-04-15T11:30:37;101489.94;;;18.31;36.36
70248;BME280;57641;51.416;5.506;2023-04-15T11:33:05;101486.59;;;18.59;35.26
70248;BME280;57641;51.416;5.506;2023-04-15T11:35:35;101486.25;;;18.18;36.28
70248;BME280;57641;51.416;5.506;2023-04-15T11:38:04;101487.44;;;18.44;36.32
70248;BME280;57641;51.416;5.506;2023-04-15T11:40:37;101489.16;;;18.67;36.31
70248;BME280;57641;51.416;5.506;2023-04-15T11:43:14;101488.34;;;18.66;36.29
70248;BME280;57641;51.416;5.506;2023-04-15T11:45:51;101503.75;;;18.87;34.88
70248;BME280;57641;51.416;5.506;2023-04-15T11:48:19;101509.16;;;18.72;35.19
70248;BME280;57641;51.416;5.506;2023-04-15T11:50:45;101507.16;;;18.30;36.11
70248;BME280;57641;51.416;5.506;2023-04-15T11:53:13;101514.84;;;17.97;36.01
70248;BME280;57641;51.416;5.506;2023-04-15T11:55:44;101514.34;;;18.08;36.41
70248;BME280;57641;51.416;5.506;2023-04-15T12:00:38;101518.34;;;18.27;36.50
70248;BME280;57641;51.416;5.506;2023-04-15T12:03:20;101527.13;;;18.29;36.13
70248;BME280;57641;51.416;5.506;2023-04-15T12:06:10;101524.41;;;18.14;36.76
70248;BME280;57641;51.416;5.506;2023-04-15T12:14:01;101511.72;;;18.59;36.93
70248;BME280;57641;51.416;5.506;2023-04-15T12:16:28;101522.69;;;18.72;36.49
70248;BME280;57641;51.416;5.506;2023-04-15T12:18:57;101525.91;;;18.82;36.73
70248;BME280;57641;51.416;5.506;2023-04-15T12:21:25;101526.06;;;18.60;35.51
70248;BME280;57641;51.416;5.506;2023-04-15T12:24:01;101526.50;;;18.99;35.95
70248;BME280;57641;51.416;5.506;2023-04-15T12:26:28;101530.50;;;18.82;34.76
70248;BME280;57641;51.416;5.506;2023-04-15T12:29:09;101537.31;;;18.99;34.97
70248;BME280;57641;51.416;5.506;2023-04-15T12:31:38;101552.59;;;19.07;34.89
70248;BME280;57641;51.416;5.506;2023-04-15T12:34:11;101552.41;;;19.08;34.29
70248;BME280;57641;51.416;5.506;2023-04-15T12:36:41;101550.16;;;19.33;33.48
70248;BME280;57641;51.416;5.506;2023-04-15T12:39:09;101547.53;;;19.39;33.67
70248;BME280;57641;51.416;5.506;2023-04-15T12:41:38;101560.97;;;19.33;34.65
70248;BME280;57641;51.416;5.506;2023-04-15T12:44:03;101555.72;;;19.46;34.75
70248;BME280;57641;51.416;5.506;2023-04-15T12:46:32;101564.16;;;19.58;34.26
70248;BME280;57641;51.416;5.506;2023-04-15T12:48:59;101580.19;;;19.02;35.55
70248;BME280;57641;51.416;5.506;2023-04-15T12:51:24;101582.28;;;19.21;34.63
70248;BME280;57641;51.416;5.506;2023-04-15T12:53:54;101574.56;;;19.18;34.37
70248;BME280;57641;51.416;5.506;2023-04-15T12:56:19;101579.38;;;19.23;34.73
70248;BME280;57641;51.416;5.506;2023-04-15T12:58:45;101582.97;;;19.30;34.75
70248;BME280;57641;51.416;5.506;2023-04-15T13:01:14;101586.66;;;19.22;35.01
70248;BME280;57641;51.416;5.506;2023-04-15T13:03:40;101586.13;;;19.12;35.68
70248;BME280;57641;51.416;5.506;2023-04-15T13:06:08;101593.59;;;18.60;37.19
70248;BME280;57641;51.416;5.506;2023-04-15T13:08:34;101580.81;;;18.68;37.34
70248;BME280;57641;51.416;5.506;2023-04-15T13:11:03;101588.31;;;19.02;36.51
70248;BME280;57641;51.416;5.506;2023-04-15T13:13:32;101584.25;;;18.62;36.80